createdAt,value
2022-09-15T00:00:16.538Z,100364.34
2022-09-15T00:03:22.143Z,100362.63
2022-09-15T00:06:25.809Z,100368.13
2022-09-15T00:09:31.223Z,100365.50
2022-09-15T00:12:35.707Z,100364.66
2022-09-15T00:15:39.382Z,100366.50
2022-09-15T00:18:43.795Z,100362.31
2022-09-15T00:21:47.573Z,100365.88
2022-09-15T00:24:52.915Z,100372.91
2022-09-15T00:27:56.727Z,100372.13
2022-09-15T00:31:00.339Z,100373.06
2022-09-15T00:34:05.103Z,100372.28
2022-09-15T00:37:08.927Z,100378.53
2022-09-15T00:40:13.959Z,100375.69
2022-09-15T00:43:20.328Z,100384.47
2022-09-15T00:46:28.761Z,100381.94
2022-09-15T00:49:36.818Z,100380.94
2022-09-15T00:52:48.072Z,100379.09
2022-09-15T00:55:54.164Z,100382.34
2022-09-15T00:59:04.475Z,100380.34
2022-09-15T01:02:17.555Z,100387.16
2022-09-15T01:05:25.120Z,100390.41
2022-09-15T01:08:40.792Z,100393.53
2022-09-15T01:11:45.710Z,100398.34
2022-09-15T01:14:49.286Z,100393.72
2022-09-15T01:18:13.789Z,100397.91
2022-09-15T01:21:32.143Z,100393.78
2022-09-15T01:24:47.073Z,100389.06
2022-09-15T01:28:34.800Z,100398.41
2022-09-15T01:32:01.052Z,100395.88
2022-09-15T01:35:22.191Z,100385.25
2022-09-15T01:38:40.818Z,100389.56
2022-09-15T01:41:54.199Z,100384.38
2022-09-15T01:45:05.254Z,100377.41
2022-09-15T01:48:11.959Z,100380.09
2022-09-15T01:51:16.872Z,100384.38
2022-09-15T01:54:26.266Z,100378.25
2022-09-15T01:57:30.187Z,100384.38
2022-09-15T02:00:38.999Z,100384.44
2022-09-15T02:03:54.919Z,100386.09
2022-09-15T02:07:07.457Z,100389.56
2022-09-15T02:10:22.427Z,100393.91
2022-09-15T02:13:38.216Z,100382.41
2022-09-15T02:16:49.993Z,100387.34
2022-09-15T02:20:04.607Z,100382.91
2022-09-15T02:23:18.846Z,100394.25
2022-09-15T02:26:28.229Z,100375.81
2022-09-15T02:29:36.441Z,100391.59
2022-09-15T02:32:48.630Z,100388.13
2022-09-15T02:35:54.460Z,100382.00
2022-09-15T02:39:10.399Z,100377.53
2022-09-15T02:42:14.070Z,100380.00
2022-09-15T02:45:17.635Z,100380.91
2022-09-15T02:48:21.289Z,100389.38
2022-09-15T02:51:26.455Z,100381.56
2022-09-15T02:54:30.091Z,100387.56
2022-09-15T02:57:33.655Z,100374.41
2022-09-15T03:00:38.934Z,100379.47
2022-09-15T03:03:43.955Z,100376.75
2022-09-15T03:06:48.879Z,100376.88
2022-09-15T03:09:52.452Z,100382.94
2022-09-15T03:12:56.585Z,100390.03
2022-09-15T03:16:00.183Z,100383.09
2022-09-15T03:19:04.280Z,100382.16
2022-09-15T03:22:09.545Z,100385.72
2022-09-15T03:25:13.506Z,100392.84
2022-09-15T03:28:17.051Z,100386.72
2022-09-15T03:31:20.931Z,100389.44
2022-09-15T03:34:24.751Z,100389.59
2022-09-15T03:37:29.972Z,100394.00
2022-09-15T03:40:33.810Z,100396.53
2022-09-15T03:43:38.862Z,100391.28
2022-09-15T03:46:42.415Z,100393.16
2022-09-15T03:49:46.035Z,100392.16
2022-09-15T03:52:53.563Z,100387.91
2022-09-15T03:56:10.687Z,100387.91
2022-09-15T03:59:14.291Z,100401.72
2022-09-15T04:02:17.924Z,100388.56
2022-09-15T04:05:21.836Z,100395.47
2022-09-15T04:08:26.918Z,100392.75
2022-09-15T04:11:31.335Z,100390.00
2022-09-15T04:14:34.919Z,100390.66
2022-09-15T04:17:38.731Z,100387.88
2022-09-15T04:20:42.542Z,100382.59
2022-09-15T04:23:49.375Z,100385.31
2022-09-15T04:26:53.123Z,100384.47
2022-09-15T04:29:56.816Z,100381.84
2022-09-15T04:33:00.446Z,100381.84
2022-09-15T04:36:06.680Z,100388.81
2022-09-15T04:39:12.837Z,100379.88
2022-09-15T04:42:16.876Z,100379.97
2022-09-15T04:45:20.475Z,100375.25
2022-09-15T04:48:25.313Z,100376.41
2022-09-15T04:51:29.026Z,100376.41
2022-09-15T04:54:35.809Z,100379.75
2022-09-15T04:57:39.386Z,100384.41
2022-09-15T05:00:44.305Z,100384.47
2022-09-15T05:03:48.911Z,100381.94
2022-09-15T05:06:52.749Z,100387.28
2022-09-15T05:09:57.722Z,100388.03
2022-09-15T05:13:01.291Z,100380.13
2022-09-15T05:16:12.021Z,100387.88
2022-09-15T05:19:15.762Z,100371.16
2022-09-15T05:22:19.341Z,100376.25
2022-09-15T05:25:24.379Z,100368.97
2022-09-15T05:28:29.479Z,100383.69
2022-09-15T05:31:35.296Z,100377.50
2022-09-15T05:34:38.977Z,100385.25
2022-09-15T05:37:42.539Z,100385.06
2022-09-15T05:40:47.806Z,100385.75
2022-09-15T05:43:52.494Z,100384.75
2022-09-15T05:46:56.185Z,100383.72
2022-09-15T05:49:59.838Z,100390.28
2022-09-15T05:53:03.551Z,100388.44
2022-09-15T05:56:13.285Z,100390.16
2022-09-15T05:59:17.164Z,100385.63
2022-09-15T06:02:20.799Z,100397.56
2022-09-15T06:05:24.447Z,100396.13
2022-09-15T06:08:32.359Z,100405.16
2022-09-15T06:11:37.348Z,100396.25
2022-09-15T06:14:43.223Z,100393.69
2022-09-15T06:17:46.764Z,100391.72
2022-09-15T06:20:50.455Z,100394.97
2022-09-15T06:23:56.041Z,100394.22
2022-09-15T06:27:01.923Z,100389.19
2022-09-15T06:30:06.303Z,100390.88
2022-09-15T06:33:09.867Z,100388.06
2022-09-15T06:36:14.307Z,100386.03
2022-09-15T06:39:17.804Z,100389.63
2022-09-15T06:42:22.744Z,100396.22
2022-09-15T06:45:26.593Z,100405.41
2022-09-15T06:48:30.320Z,100403.88
2022-09-15T06:51:35.662Z,100396.56
2022-09-15T06:54:39.192Z,100399.44
2022-09-15T06:57:44.146Z,100398.91
2022-09-15T07:00:47.951Z,100404.34
2022-09-15T07:03:52.141Z,100401.81
2022-09-15T07:06:55.771Z,100401.78
2022-09-15T07:10:01.130Z,100405.59
2022-09-15T07:13:06.208Z,100399.28
2022-09-15T07:16:13.013Z,100397.03
2022-09-15T07:19:16.884Z,100395.09
2022-09-15T07:22:20.575Z,100400.19
2022-09-15T07:25:24.254Z,100402.91
2022-09-15T07:28:29.332Z,100409.19
2022-09-15T07:31:36.427Z,100417.31
2022-09-15T07:34:40.015Z,100407.69
2022-09-15T07:37:44.732Z,100411.75
2022-09-15T07:40:49.243Z,100415.81
2022-09-15T07:43:56.375Z,100417.31
2022-09-15T07:46:59.988Z,100413.44
2022-09-15T07:50:03.648Z,100423.78
2022-09-15T07:53:07.436Z,100421.91
2022-09-15T07:56:11.523Z,100421.25
2022-09-15T07:59:16.654Z,100425.78
2022-09-15T08:02:22.443Z,100430.72
2022-09-15T08:05:28.875Z,100434.28
2022-09-15T08:08:32.523Z,100434.69
2022-09-15T08:11:36.130Z,100443.75
2022-09-15T08:14:41.112Z,100451.50
2022-09-15T08:17:44.774Z,100447.91
2022-09-15T08:20:48.425Z,100451.22
2022-09-15T08:23:53.748Z,100454.13
2022-09-15T08:26:57.516Z,100462.22
2022-09-15T08:30:02.492Z,100469.19
2022-09-15T08:33:06.141Z,100459.97
2022-09-15T08:36:12.002Z,100462.75
2022-09-15T08:39:15.655Z,100470.75
2022-09-15T08:42:24.139Z,100481.31
2022-09-15T08:45:38.818Z,100488.47
2022-09-15T08:48:50.483Z,100492.03
2022-09-15T08:51:59.375Z,100489.81
2022-09-15T08:55:14.430Z,100497.03
2022-09-15T08:58:21.427Z,100504.31
2022-09-15T09:01:50.180Z,100501.31
2022-09-15T09:05:16.493Z,100495.84
2022-09-15T09:09:16.569Z,100501.72
2022-09-15T09:12:42.746Z,100502.84
2022-09-15T09:16:05.600Z,100500.34
2022-09-15T09:19:58.875Z,100497.91
2022-09-15T09:23:08.978Z,100495.75
2022-09-15T09:26:15.733Z,100486.91
2022-09-15T09:29:21.887Z,100490.47
2022-09-15T09:32:33.686Z,100477.94
2022-09-15T09:35:46.990Z,100483.22
2022-09-15T09:38:51.918Z,100481.41
2022-09-15T09:41:56.962Z,100481.50
2022-09-15T09:45:00.675Z,100486.31
2022-09-15T09:48:16.362Z,100483.31
2022-09-15T09:51:38.052Z,100486.81
2022-09-15T09:54:42.346Z,100478.28
2022-09-15T09:57:45.955Z,100486.22
2022-09-15T10:00:50.651Z,100485.59
2022-09-15T10:04:18.992Z,100484.44
2022-09-15T10:07:27.718Z,100476.72
2022-09-15T10:10:32.444Z,100476.56
2022-09-15T10:13:37.854Z,100477.34
2022-09-15T10:16:42.118Z,100472.78
2022-09-15T10:19:49.604Z,100473.00
2022-09-15T10:23:05.136Z,100474.91
2022-09-15T10:26:35.298Z,100483.78
2022-09-15T10:29:40.353Z,100476.56
2022-09-15T10:32:44.622Z,100479.00
2022-09-15T10:35:48.249Z,100464.84
2022-09-15T10:39:08.300Z,100455.31
2022-09-15T10:42:24.157Z,100467.13
2022-09-15T10:45:35.061Z,100452.00
2022-09-15T10:48:59.467Z,100453.31
2022-09-15T10:52:18.232Z,100451.00
2022-09-15T10:55:52.596Z,100462.59
2022-09-15T10:59:33.172Z,100472.28
2022-09-15T11:03:27.556Z,100472.81
2022-09-15T11:06:41.758Z,100476.31
2022-09-15T11:09:52.126Z,100496.22
2022-09-15T11:13:09.742Z,100507.84
2022-09-15T11:16:30.925Z,100500.59
2022-09-15T11:20:15.180Z,100518.38
2022-09-15T11:23:28.571Z,100525.09
2022-09-15T11:26:40.221Z,100520.94
2022-09-15T11:30:04.026Z,100505.28
2022-09-15T11:33:19.291Z,100502.91
2022-09-15T11:36:32.363Z,100509.88
2022-09-15T11:39:47.735Z,100514.13
2022-09-15T11:42:58.711Z,100514.38
2022-09-15T11:46:12.676Z,100506.88
2022-09-15T11:49:22.630Z,100511.06
2022-09-15T11:52:56.112Z,100513.44
2022-09-15T11:56:14.515Z,100508.28
2022-09-15T11:59:28.966Z,100508.31
2022-09-15T12:02:45.266Z,100507.56
2022-09-15T12:05:57.218Z,100501.34
2022-09-15T12:09:05.814Z,100498.25
2022-09-15T12:12:16.386Z,100500.19
2022-09-15T12:15:27.528Z,100497.38
2022-09-15T12:18:43.836Z,100502.75
2022-09-15T12:21:59.007Z,100520.63
2022-09-15T12:25:12.595Z,100520.41
2022-09-15T12:28:42.539Z,100521.03
2022-09-15T12:31:47.384Z,100520.25
2022-09-15T12:35:02.564Z,100510.69
2022-09-15T12:38:06.257Z,100508.34
2022-09-15T12:41:13.719Z,100507.38
2022-09-15T12:44:33.260Z,100503.31
2022-09-15T12:47:41.551Z,100508.28
2022-09-15T12:50:57.327Z,100514.59
2022-09-15T12:54:07.507Z,100529.47
2022-09-15T12:57:26.128Z,100542.16
2022-09-15T13:00:54.844Z,100527.75
2022-09-15T13:04:29.144Z,100529.28
2022-09-15T13:07:55.079Z,100521.88
2022-09-15T13:11:05.973Z,100529.03
2022-09-15T13:14:26.086Z,100531.94
2022-09-15T13:17:31.419Z,100519.72
2022-09-15T13:20:42.203Z,100513.75
2022-09-15T13:23:52.597Z,100504.25
2022-09-15T13:26:57.840Z,100490.19
2022-09-15T13:30:22.742Z,100494.63
2022-09-15T13:38:08.331Z,100492.19
2022-09-15T13:41:57.893Z,100493.38
2022-09-15T13:45:35.719Z,100520.34
2022-09-15T13:49:08.215Z,100519.00
2022-09-15T13:52:28.181Z,100503.97
2022-09-15T13:55:38.635Z,100507.06
2022-09-15T13:59:06.964Z,100498.00
2022-09-15T14:02:12.183Z,100502.91
2022-09-15T14:05:17.491Z,100499.81
2022-09-15T14:08:26.771Z,100501.09
2022-09-15T14:11:34.531Z,100508.56
2022-09-15T14:14:44.776Z,100517.19
2022-09-15T14:17:48.472Z,100525.44
2022-09-15T14:21:04.344Z,100521.03
2022-09-15T14:24:22.321Z,100526.38
2022-09-15T14:27:29.015Z,100512.69
2022-09-15T14:30:34.278Z,100531.66
2022-09-15T14:33:41.869Z,100531.47
2022-09-15T14:36:45.575Z,100533.53
2022-09-15T14:39:54.860Z,100529.44
2022-09-15T14:42:59.259Z,100527.91
2022-09-15T14:46:14.050Z,100524.69
2022-09-15T14:49:17.985Z,100530.91
2022-09-15T14:52:29.998Z,100526.41
2022-09-15T14:55:39.494Z,100518.56
2022-09-15T14:58:49.603Z,100522.97
2022-09-15T15:02:05.205Z,100526.72
2022-09-15T15:05:18.983Z,100530.97
2022-09-15T15:08:35.015Z,100524.09
2022-09-15T15:11:42.407Z,100533.78
2022-09-15T15:14:46.225Z,100532.88
2022-09-15T15:17:54.926Z,100534.50
2022-09-15T15:20:59.165Z,100538.69
2022-09-15T15:24:09.845Z,100541.63
2022-09-15T15:27:42.933Z,100538.06
2022-09-15T15:30:48.466Z,100532.78
2022-09-15T15:33:59.578Z,100531.84
2022-09-15T15:37:17.606Z,100532.88
2022-09-15T15:40:23.440Z,100536.16
2022-09-15T15:43:28.848Z,100534.78
2022-09-15T15:46:55.751Z,100537.50
2022-09-15T15:50:13.564Z,100543.28
2022-09-15T15:53:18.035Z,100541.28
2022-09-15T15:56:26.329Z,100549.53
2022-09-15T15:59:29.912Z,100551.31
2022-09-15T16:02:33.525Z,100549.84
2022-09-15T16:05:40.595Z,100543.13
2022-09-15T16:08:46.611Z,100547.59
2022-09-15T16:11:50.888Z,100558.00
2022-09-15T16:14:54.564Z,100559.44
2022-09-15T16:17:58.219Z,100557.03
2022-09-15T16:21:03.220Z,100551.53
2022-09-15T16:24:11.074Z,100569.19
2022-09-15T16:27:18.604Z,100561.38
2022-09-15T16:30:22.125Z,100546.31
2022-09-15T16:33:26.675Z,100545.56
2022-09-15T16:36:36.344Z,100551.00
2022-09-15T16:39:39.980Z,100550.13
2022-09-15T16:42:43.514Z,100542.44
2022-09-15T16:45:47.886Z,100549.59
2022-09-15T16:48:51.745Z,100551.22
2022-09-15T16:51:56.882Z,100550.38
2022-09-15T16:55:00.392Z,100548.81
2022-09-15T16:58:04.699Z,100552.53
2022-09-15T17:01:12.862Z,100563.22
2022-09-15T17:04:19.134Z,100558.56
2022-09-15T17:07:24.215Z,100563.25
2022-09-15T17:10:28.246Z,100556.59
2022-09-15T17:13:35.146Z,100560.22
2022-09-15T17:16:39.487Z,100561.13
2022-09-15T17:19:43.048Z,100565.84
2022-09-15T17:22:49.047Z,100568.41
2022-09-15T17:25:57.454Z,100568.25
2022-09-15T17:29:01.132Z,100577.22
2022-09-15T17:32:04.731Z,100586.50
2022-09-15T17:35:20.191Z,100587.63
2022-09-15T17:38:25.697Z,100582.75
2022-09-15T17:41:34.086Z,100582.47
2022-09-15T17:44:37.830Z,100584.59
2022-09-15T17:47:41.453Z,100589.28
2022-09-15T17:50:46.344Z,100591.28
2022-09-15T17:53:51.301Z,100588.84
2022-09-15T17:56:54.835Z,100595.09
2022-09-15T17:59:58.382Z,100588.91
2022-09-15T18:03:05.965Z,100589.97
2022-09-15T18:06:11.678Z,100594.44
2022-09-15T18:09:17.732Z,100585.97
2022-09-15T18:12:21.436Z,100589.66
2022-09-15T18:15:28.336Z,100599.56
2022-09-15T18:18:31.881Z,100586.50
2022-09-15T18:21:35.482Z,100587.69
2022-09-15T18:24:40.619Z,100593.09
2022-09-15T18:27:44.327Z,100589.63
2022-09-15T18:30:50.700Z,100595.84
2022-09-15T18:33:54.434Z,100595.91
2022-09-15T18:36:59.853Z,100596.00
2022-09-15T18:40:08.599Z,100597.03
2022-09-15T18:43:12.196Z,100597.16
2022-09-15T18:46:16.182Z,100594.94
2022-09-15T18:49:19.751Z,100600.31
2022-09-15T18:52:23.568Z,100603.84
2022-09-15T18:55:28.926Z,100598.72
2022-09-15T18:58:32.487Z,100602.41
2022-09-15T19:01:36.203Z,100593.84
2022-09-15T19:04:40.746Z,100602.53
2022-09-15T19:07:45.601Z,100597.38
2022-09-15T19:10:58.380Z,100588.88
2022-09-15T19:14:02.442Z,100596.59
2022-09-15T19:17:06.168Z,100594.03
2022-09-15T19:20:13.247Z,100594.25
2022-09-15T19:23:17.116Z,100602.28
2022-09-15T19:26:22.645Z,100596.25
2022-09-15T19:29:26.371Z,100597.38
2022-09-15T19:32:30.287Z,100599.25
2022-09-15T19:35:34.007Z,100604.44
2022-09-15T19:38:38.323Z,100602.84
2022-09-15T19:41:43.334Z,100602.19
2022-09-15T19:44:47.883Z,100607.44
2022-09-15T19:47:51.745Z,100600.34
2022-09-15T19:50:55.474Z,100596.81
2022-09-15T19:54:00.158Z,100602.75
2022-09-15T19:57:05.687Z,100608.91
2022-09-15T20:00:13.891Z,100605.25
2022-09-15T20:03:17.406Z,100609.69
2022-09-15T20:06:21.363Z,100611.28
2022-09-15T20:09:24.984Z,100616.53
2022-09-15T20:12:31.305Z,100610.00
2022-09-15T20:15:34.892Z,100614.91
2022-09-15T20:18:41.451Z,100618.28
2022-09-15T20:21:51.349Z,100612.22
2022-09-15T20:24:56.152Z,100615.00
2022-09-15T20:28:01.015Z,100620.19
2022-09-15T20:31:08.158Z,100625.63
2022-09-15T20:34:11.827Z,100627.44
2022-09-15T20:37:15.445Z,100623.22
2022-09-15T20:40:19.192Z,100618.09
2022-09-15T20:43:24.357Z,100626.19
2022-09-15T20:46:29.163Z,100631.56
2022-09-15T20:49:32.727Z,100626.47
2022-09-15T20:52:38.490Z,100632.59
2022-09-15T20:55:42.335Z,100629.28
2022-09-15T20:58:47.299Z,100634.66
2022-09-15T21:01:50.985Z,100629.66
2022-09-15T21:04:55.405Z,100630.69
2022-09-15T21:07:59.606Z,100627.22
2022-09-15T21:11:05.214Z,100631.69
2022-09-15T21:14:12.399Z,100626.59
2022-09-15T21:17:16.575Z,100631.06
2022-09-15T21:20:20.196Z,100638.94
2022-09-15T21:23:23.970Z,100635.41
2022-09-15T21:26:30.111Z,100641.31
2022-09-15T21:29:35.171Z,100633.28
2022-09-15T21:32:38.878Z,100635.69
2022-09-15T21:35:42.401Z,100637.09
2022-09-15T21:38:46.842Z,100638.13
2022-09-15T21:41:50.822Z,100639.06
2022-09-15T21:44:56.313Z,100642.72
2022-09-15T21:47:59.943Z,100643.78
2022-09-15T21:51:06.624Z,100642.13
2022-09-15T21:54:11.119Z,100639.72
2022-09-15T21:57:15.452Z,100642.34
2022-09-15T22:00:20.567Z,100640.66
2022-09-15T22:03:24.138Z,100638.88
2022-09-15T22:06:32.093Z,100639.72
2022-09-15T22:09:35.874Z,100650.34
2022-09-15T22:12:39.421Z,100656.41
2022-09-15T22:15:44.805Z,100652.19
2022-09-15T22:18:49.023Z,100653.22
2022-09-15T22:21:52.641Z,100653.38
2022-09-15T22:24:56.157Z,100655.31
2022-09-15T22:27:59.771Z,100652.75
2022-09-15T22:31:09.224Z,100650.13
2022-09-15T22:34:12.900Z,100652.63
2022-09-15T22:37:16.430Z,100656.03
2022-09-15T22:40:20.025Z,100663.97
2022-09-15T22:43:23.762Z,100659.25
2022-09-15T22:46:29.074Z,100656.63
2022-09-15T22:49:32.645Z,100655.78
2022-09-15T22:52:36.285Z,100654.19
2022-09-15T22:55:39.995Z,100650.81
2022-09-15T22:58:45.415Z,100657.88
2022-09-15T23:01:50.440Z,100645.91
2022-09-15T23:04:54.294Z,100658.22
2022-09-15T23:07:57.907Z,100648.75
2022-09-15T23:11:07.282Z,100646.06
2022-09-15T23:14:16.444Z,100644.44
2022-09-15T23:17:21.412Z,100642.72
2022-09-15T23:20:25.148Z,100636.56
2022-09-15T23:23:30.827Z,100631.53
2022-09-15T23:26:34.595Z,100642.91
2022-09-15T23:29:39.205Z,100634.28
2022-09-15T23:32:44.320Z,100628.25
2022-09-15T23:35:49.004Z,100633.53
2022-09-15T23:38:52.526Z,100629.28
2022-09-15T23:41:56.237Z,100634.50
2022-09-15T23:44:59.781Z,100627.56
2022-09-15T23:48:05.171Z,100631.19
2022-09-15T23:51:08.932Z,100625.94
2022-09-15T23:54:12.555Z,100628.47
2022-09-15T23:57:16.084Z,100630.97
